createdAt,value
2017-12-21T10:39:35.490Z,1027.21
2017-12-21T10:40:35.362Z,1027.24
2017-12-21T10:41:35.383Z,1027.22
2017-12-21T10:42:35.356Z,1027.24
2017-12-21T10:43:37.701Z,1027.23
2017-12-21T10:44:35.329Z,1027.25
2017-12-21T10:45:36.410Z,1027.22
2017-12-21T10:46:35.340Z,1027.24
2017-12-21T10:47:37.450Z,1027.21
2017-12-21T10:48:35.362Z,1027.23
2017-12-21T10:49:36.436Z,1027.21
2017-12-21T10:50:35.352Z,1027.18
2017-12-21T10:51:37.469Z,1027.17
2017-12-21T10:52:35.370Z,1027.14
2017-12-21T10:53:40.055Z,1027.16
2017-12-21T10:54:35.377Z,1027.20
2017-12-21T10:55:41.013Z,1027.12
2017-12-21T10:56:35.377Z,1027.21
2017-12-21T10:57:36.407Z,1027.22
2017-12-21T10:58:35.380Z,1027.24
2017-12-21T11:00:04.053Z,1027.22
2017-12-21T11:00:35.454Z,1027.23
2017-12-21T11:01:35.392Z,1027.23
2017-12-21T11:03:12.066Z,1027.22
2017-12-21T11:03:35.422Z,1027.24
2017-12-21T11:04:35.404Z,1027.29
2017-12-21T11:05:41.972Z,1027.26
2017-12-21T11:06:35.401Z,1027.25
2017-12-21T11:07:36.473Z,1027.23
2017-12-21T11:08:35.406Z,1027.27
2017-12-21T11:09:35.441Z,1027.20
2017-12-21T11:10:35.439Z,1027.24
2017-12-21T11:11:40.996Z,1027.23
2017-12-21T11:12:35.428Z,1027.23
2017-12-21T11:13:39.980Z,1027.26
2017-12-21T11:14:35.527Z,1027.24
2017-12-21T11:15:35.425Z,1027.25
2017-12-21T11:17:12.066Z,1027.25
2017-12-21T11:17:35.439Z,1027.32
2017-12-21T11:18:35.436Z,1027.29
2017-12-21T11:19:36.552Z,1027.22
2017-12-21T11:20:35.455Z,1027.25
2017-12-21T11:22:05.030Z,1027.26
2017-12-21T11:22:35.461Z,1027.22
2017-12-21T11:33:43.273Z,1026.99
2017-12-21T11:33:56.373Z,1026.99
2017-12-21T11:34:56.337Z,1026.95
2017-12-21T11:36:07.550Z,1027.02
2017-12-21T11:36:56.307Z,1026.97
2017-12-21T11:37:57.419Z,1026.97
2017-12-21T11:38:56.314Z,1026.92
2017-12-21T11:40:28.161Z,1026.96
2017-12-21T11:40:56.316Z,1026.90
2017-12-21T11:41:56.320Z,1026.89
2017-12-21T11:43:08.192Z,1026.91
2017-12-21T11:43:56.331Z,1026.92
2017-12-21T11:45:13.303Z,1026.89
2017-12-21T11:45:56.381Z,1026.87
2017-12-21T11:47:08.265Z,1026.89
2017-12-21T11:47:56.334Z,1026.92
2017-12-21T11:49:17.368Z,1026.85
2017-12-21T11:49:56.359Z,1026.84
2017-12-21T11:51:01.199Z,1026.84
2017-12-21T11:51:56.366Z,1026.86
2017-12-21T11:52:57.419Z,1026.89
2017-12-21T11:53:56.384Z,1026.84
2017-12-21T11:54:56.406Z,1026.91
2017-12-21T11:55:56.378Z,1026.93
2017-12-21T11:56:56.425Z,1026.94
2017-12-21T11:57:56.376Z,1026.89
2017-12-21T11:59:13.225Z,1026.90
2017-12-21T11:59:56.424Z,1026.90
2017-12-21T12:00:56.390Z,1026.90
2017-12-21T12:02:02.207Z,1026.92
2017-12-21T12:02:56.393Z,1026.90
2017-12-21T12:04:03.243Z,1026.92
2017-12-21T12:04:56.410Z,1026.87
2017-12-21T12:06:09.192Z,1026.86
2017-12-21T12:06:56.395Z,1026.90
2017-12-21T12:07:57.514Z,1026.87
2017-12-21T12:08:56.413Z,1026.83
2017-12-21T12:09:57.484Z,1026.78
2017-12-21T12:10:56.445Z,1026.80
2017-12-21T12:12:08.231Z,1026.81
2017-12-21T12:12:56.435Z,1026.84
2017-12-21T12:13:57.490Z,1026.86
2017-12-21T12:14:56.415Z,1026.84
2017-12-21T12:15:56.421Z,1026.85
2017-12-21T12:16:57.508Z,1026.88
2017-12-21T12:17:56.435Z,1026.84
2017-12-21T12:18:56.495Z,1026.82
2017-12-21T12:19:56.457Z,1026.81
2017-12-21T12:21:02.239Z,1026.80
2017-12-21T12:21:56.429Z,1026.78
2017-12-21T12:23:02.257Z,1026.81
2017-12-21T12:23:56.450Z,1026.74
2017-12-21T12:25:02.174Z,1026.74
2017-12-21T12:25:56.447Z,1026.74
2017-12-21T12:26:57.480Z,1026.73
2017-12-21T12:27:58.173Z,1026.73
2017-12-21T13:20:03.207Z,1026.59
2017-12-21T14:11:03.639Z,1026.58
2017-12-21T14:12:27.325Z,1026.59
2017-12-21T14:13:01.596Z,1026.60
2017-12-21T14:14:18.105Z,1026.60
2017-12-21T14:15:01.260Z,1026.61
2017-12-21T14:16:17.985Z,1026.63
2017-12-21T14:17:01.279Z,1026.64
2017-12-21T14:18:06.009Z,1026.62
2017-12-21T14:19:01.281Z,1026.67
2017-12-21T14:20:12.092Z,1026.64
2017-12-21T14:21:01.302Z,1026.66
2017-12-21T14:22:24.983Z,1026.64
2017-12-21T14:23:01.280Z,1026.66
2017-12-21T14:24:15.984Z,1026.64
2017-12-21T14:25:01.333Z,1026.57
2017-12-21T14:26:01.389Z,1026.62
2017-12-21T14:27:01.309Z,1026.57
2017-12-21T14:28:03.336Z,1026.55
2017-12-21T14:29:01.319Z,1026.59
2017-12-21T14:30:08.052Z,1026.60
2017-12-21T14:31:01.334Z,1026.55
2017-12-21T14:32:13.997Z,1026.57
2017-12-21T14:33:01.301Z,1026.51
2017-12-21T14:34:01.315Z,1026.55
2017-12-21T14:35:18.055Z,1026.54
2017-12-21T14:36:01.318Z,1026.54
2017-12-21T14:37:01.325Z,1026.53
2017-12-21T14:38:07.992Z,1026.59
2017-12-21T14:39:01.322Z,1026.61
2017-12-21T14:40:27.059Z,1026.58
2017-12-21T14:41:01.356Z,1026.61
2017-12-21T14:42:01.345Z,1026.60
2017-12-21T14:43:08.097Z,1026.60
2017-12-21T14:44:01.340Z,1026.62
2017-12-21T14:45:30.120Z,1026.57
2017-12-21T14:46:01.358Z,1026.57
2017-12-21T14:47:01.361Z,1026.57
2017-12-21T14:48:12.103Z,1026.56
2017-12-21T14:49:01.347Z,1026.46
2017-12-21T14:50:16.131Z,1026.50
2017-12-21T14:51:01.359Z,1026.52
2017-12-21T14:52:02.510Z,1026.52
2017-12-21T14:53:01.362Z,1026.56
2017-12-21T14:54:29.010Z,1026.55
2017-12-21T14:55:01.401Z,1026.56
2017-12-21T14:56:01.370Z,1026.58
2017-12-21T14:57:03.428Z,1026.55
2017-12-21T14:58:01.387Z,1026.62
2017-12-21T14:59:07.040Z,1026.62
2017-12-21T15:00:01.389Z,1026.69
2017-12-21T15:01:07.028Z,1026.81
2017-12-21T15:02:01.438Z,1026.80
2017-12-21T15:03:02.438Z,1026.86
2017-12-21T15:04:01.401Z,1026.85
2017-12-21T15:05:02.446Z,1026.88
2017-12-21T15:06:01.431Z,1026.82
2017-12-21T15:07:08.023Z,1026.80
2017-12-21T15:08:01.408Z,1026.80
2017-12-21T15:09:01.444Z,1026.81
2017-12-21T15:10:01.417Z,1026.88
2017-12-21T15:11:01.454Z,1026.93
2017-12-21T15:12:01.445Z,1026.93
2017-12-21T15:13:02.469Z,1026.99
2017-12-21T15:14:01.448Z,1026.95
2017-12-21T15:20:55.210Z,1026.85
2017-12-21T15:21:56.963Z,1026.88
2017-12-21T15:22:52.237Z,1026.86
2017-12-21T15:23:52.194Z,1026.87
2017-12-21T15:24:52.098Z,1026.85
2017-12-21T15:25:52.180Z,1026.85
2017-12-21T15:26:52.168Z,1026.88
2017-12-21T15:27:52.183Z,1026.78
2017-12-21T15:28:52.142Z,1026.83
2017-12-21T15:30:03.878Z,1026.84
2017-12-21T15:30:52.138Z,1026.82
2017-12-21T15:31:52.244Z,1026.81
2017-12-21T15:32:52.140Z,1026.87
2017-12-21T15:33:52.129Z,1026.85
2017-12-21T15:34:52.128Z,1026.93
2017-12-21T15:35:52.263Z,1026.86
2017-12-21T15:36:52.134Z,1026.90
2017-12-21T15:37:52.186Z,1026.86
2017-12-21T15:38:52.229Z,1026.95
2017-12-21T15:40:13.197Z,1026.94
2017-12-21T15:40:52.144Z,1026.98
2017-12-21T15:42:03.906Z,1026.97
2017-12-21T15:42:52.153Z,1027.05
2017-12-21T15:44:02.872Z,1027.08
2017-12-21T15:44:52.169Z,1027.05
2017-12-21T15:45:53.276Z,1027.08
2017-12-21T15:46:52.165Z,1027.13
2017-12-21T17:04:01.216Z,1027.73
2017-12-21T17:04:35.002Z,1027.76
2017-12-21T17:05:14.023Z,1027.77
2017-12-21T17:06:20.353Z,1027.83
2017-12-21T17:07:13.604Z,1027.82
2017-12-21T18:27:52.581Z,1027.88
2017-12-21T18:28:52.517Z,1027.83
2017-12-21T18:29:52.436Z,1027.87
2017-12-21T18:30:52.440Z,1027.79
2017-12-21T18:31:52.457Z,1027.90
2017-12-21T18:32:57.408Z,1027.88
2017-12-21T18:33:52.450Z,1027.91
2017-12-21T18:34:53.502Z,1027.93
2017-12-21T18:35:52.483Z,1027.90
2017-12-21T18:57:09.046Z,1028.13
2017-12-21T18:58:00.360Z,1028.14
2017-12-21T18:59:01.377Z,1028.15
2017-12-21T19:00:00.298Z,1028.17
2017-12-21T19:01:06.091Z,1028.15
2017-12-21T19:02:00.282Z,1028.17
2017-12-21T19:03:02.353Z,1028.16
2017-12-21T19:04:00.277Z,1028.23
2017-12-21T19:05:05.109Z,1028.19
2017-12-21T19:06:00.307Z,1028.23
2017-12-21T19:07:00.395Z,1028.21
2017-12-21T19:08:00.296Z,1028.20
2017-12-21T19:09:00.413Z,1028.21
2017-12-21T19:10:00.299Z,1028.21
2017-12-21T19:11:00.314Z,1028.23
2017-12-21T19:12:00.314Z,1028.21
2017-12-21T19:13:17.034Z,1028.22
2017-12-21T19:14:00.313Z,1028.21
2017-12-21T19:15:05.061Z,1028.20
2017-12-21T19:16:00.334Z,1028.22
2017-12-21T19:17:01.394Z,1028.21
2017-12-21T19:18:00.328Z,1028.23
2017-12-21T19:19:29.069Z,1028.20
2017-12-21T19:20:00.346Z,1028.23
2017-12-21T19:21:16.075Z,1028.26
2017-12-21T19:22:00.352Z,1028.22
2017-12-21T19:23:00.351Z,1028.22
2017-12-21T19:24:17.108Z,1028.26
2017-12-21T19:25:00.368Z,1028.21
2017-12-21T19:26:00.369Z,1028.16
2017-12-21T19:27:02.497Z,1028.14
2017-12-21T19:28:00.399Z,1028.10
2017-12-21T19:29:06.081Z,1028.05
2017-12-21T19:30:00.390Z,1028.04
2017-12-21T19:31:05.081Z,1028.05
2017-12-21T19:32:00.381Z,1028.07
2017-12-21T19:33:05.099Z,1028.06
2017-12-21T19:34:00.390Z,1028.01
2017-12-21T19:35:02.460Z,1028.04
2017-12-21T19:36:00.402Z,1028.02
2017-12-21T19:37:05.112Z,1028.03
2017-12-21T19:38:00.390Z,1027.98
2017-12-21T19:39:17.115Z,1027.92
2017-12-21T19:40:00.405Z,1027.88
2017-12-21T19:41:15.088Z,1027.90
2017-12-21T19:42:00.411Z,1027.91
2017-12-21T19:43:33.143Z,1027.86
2017-12-21T19:44:00.414Z,1027.85
2017-12-21T19:45:00.428Z,1027.79
2017-12-21T19:46:05.076Z,1027.79
2017-12-21T19:47:00.431Z,1027.82
2017-12-21T19:48:12.068Z,1027.80
2017-12-21T19:49:00.461Z,1027.79
2017-12-21T19:50:07.063Z,1027.82
2017-12-21T19:51:00.440Z,1027.77
2017-12-21T19:52:26.109Z,1027.80
2017-12-21T19:53:00.447Z,1027.78
2017-12-21T19:54:02.468Z,1027.75
2017-12-21T19:55:00.471Z,1027.75
2017-12-21T19:56:07.120Z,1027.79
2017-12-21T19:57:00.462Z,1027.73
2017-12-21T19:58:11.099Z,1027.69
2017-12-21T19:59:00.480Z,1027.70
2017-12-21T20:00:01.589Z,1027.69
2017-12-21T20:01:00.469Z,1027.68
2017-12-21T20:02:05.088Z,1027.67
2017-12-21T20:03:00.478Z,1027.70
2017-12-21T20:04:05.106Z,1027.67
2017-12-21T20:05:00.494Z,1027.63
2017-12-21T20:06:05.107Z,1027.65
2017-12-21T20:07:00.504Z,1027.67
2017-12-21T20:08:05.137Z,1027.64
2017-12-21T20:09:00.506Z,1027.66
2017-12-21T20:10:06.059Z,1027.63
2017-12-21T20:11:00.505Z,1027.63
2017-12-21T20:12:00.542Z,1027.63
2017-12-21T20:13:00.515Z,1027.65
2017-12-21T20:14:02.605Z,1027.67
2017-12-21T20:15:00.529Z,1027.69
2017-12-21T20:16:00.601Z,1027.73
2017-12-21T20:17:00.529Z,1027.67
2017-12-21T20:18:01.607Z,1027.68
2017-12-21T20:19:00.525Z,1027.64
2017-12-21T20:20:13.603Z,1027.65
2017-12-21T20:21:00.536Z,1027.67
2017-12-21T20:40:12.954Z,1027.82
2017-12-21T21:49:27.909Z,1027.95
2017-12-21T21:50:28.183Z,1027.96
2017-12-21T21:51:26.115Z,1027.98
2017-12-21T21:52:31.890Z,1027.96
2017-12-21T21:53:26.108Z,1027.99
2017-12-21T21:54:26.172Z,1028.03
2017-12-21T21:55:26.115Z,1027.98
2017-12-21T21:56:27.208Z,1028.02
2017-12-21T21:57:26.120Z,1027.95
2017-12-21T21:58:26.120Z,1027.96
2017-12-21T21:59:26.204Z,1027.97
2017-12-21T22:00:26.128Z,1027.97
2017-12-21T22:01:26.208Z,1028.01
2017-12-21T22:02:26.140Z,1028.02
2017-12-21T22:03:26.227Z,1028.00
2017-12-21T22:04:26.134Z,1027.96
2017-12-21T22:05:26.148Z,1028.02
2017-12-21T22:06:26.164Z,1028.03
2017-12-21T22:07:28.222Z,1027.98
2017-12-21T22:08:26.142Z,1028.00
2017-12-21T22:09:28.260Z,1028.04
2017-12-21T22:10:26.164Z,1028.05
2017-12-21T22:11:26.159Z,1028.06
2017-12-21T22:12:26.171Z,1028.07
2017-12-21T22:13:26.170Z,1028.05
2017-12-21T22:14:26.248Z,1028.07
2017-12-21T22:15:26.186Z,1028.07
2017-12-21T22:16:28.209Z,1028.00
2017-12-21T22:17:26.192Z,1028.02
2017-12-21T22:18:26.275Z,1027.99
2017-12-21T22:19:26.184Z,1028.01
2017-12-21T22:20:26.286Z,1027.96
2017-12-21T22:21:26.191Z,1027.99
2017-12-21T22:22:26.299Z,1027.96
2017-12-21T22:23:26.203Z,1027.96
2017-12-21T22:24:26.211Z,1027.93
2017-12-21T22:25:26.209Z,1027.92
2017-12-21T22:26:26.225Z,1027.93
2017-12-21T22:27:26.234Z,1027.92
2017-12-21T22:28:26.243Z,1027.91
2017-12-21T22:29:26.223Z,1027.96
2017-12-21T22:30:26.258Z,1027.95
2017-12-21T22:31:26.233Z,1027.92
2017-12-21T22:32:26.276Z,1027.91
2017-12-21T22:33:26.240Z,1027.95
2017-12-21T22:34:26.353Z,1027.88
2017-12-21T22:35:26.236Z,1027.90
2017-12-21T22:36:26.346Z,1027.92
2017-12-21T22:37:26.252Z,1027.89
2017-12-21T22:38:26.244Z,1027.88
2017-12-21T22:39:27.301Z,1027.87
2017-12-21T22:40:26.260Z,1027.85
2017-12-21T22:41:27.336Z,1027.85
2017-12-21T22:42:26.270Z,1027.85
2017-12-21T22:43:27.312Z,1027.88
2017-12-21T22:44:26.258Z,1027.87
2017-12-21T22:45:30.932Z,1027.84
2017-12-21T22:46:26.277Z,1027.84
2017-12-21T22:47:26.268Z,1027.81
2017-12-21T22:48:27.406Z,1027.78
2017-12-21T22:49:26.303Z,1027.84
2017-12-21T22:50:26.348Z,1027.80
2017-12-21T22:51:26.301Z,1027.75
2017-12-21T22:52:26.282Z,1027.77
2017-12-21T22:53:26.286Z,1027.78
2017-12-21T22:54:26.354Z,1027.78
2017-12-21T22:55:26.304Z,1027.78
2017-12-21T22:56:32.924Z,1027.79
2017-12-21T22:57:26.320Z,1027.77
2017-12-21T22:58:28.418Z,1027.79
2017-12-21T22:59:26.304Z,1027.80
2017-12-21T23:00:26.397Z,1027.80
2017-12-21T23:01:26.324Z,1027.77
2017-12-21T23:02:26.317Z,1027.78
2017-12-21T23:03:26.417Z,1027.77
2017-12-21T23:04:26.321Z,1027.76
2017-12-21T23:05:27.341Z,1027.76
2017-12-21T23:06:26.349Z,1027.76
2017-12-21T23:07:27.363Z,1027.74
2017-12-21T23:08:26.338Z,1027.74
2017-12-21T23:09:26.456Z,1027.75
2017-12-21T23:10:26.342Z,1027.73
2017-12-21T23:11:27.387Z,1027.74
2017-12-21T23:12:26.370Z,1027.77
2017-12-21T23:13:26.353Z,1027.78
2017-12-21T23:14:28.517Z,1027.71
2017-12-21T23:15:26.363Z,1027.79
2017-12-21T23:16:26.395Z,1027.68
2017-12-21T23:17:26.365Z,1027.71
2017-12-21T23:18:26.411Z,1027.70
2017-12-21T23:19:26.357Z,1027.71
2017-12-21T23:20:26.424Z,1027.72
2017-12-21T23:21:26.384Z,1027.59
2017-12-21T23:22:26.440Z,1027.61
2017-12-21T23:23:26.395Z,1027.64
2017-12-21T23:24:31.485Z,1027.57
2017-12-21T23:25:26.391Z,1027.60
2017-12-21T23:26:26.397Z,1027.58
2017-12-21T23:27:27.499Z,1027.52
2017-12-21T23:28:26.410Z,1027.59
2017-12-21T23:29:26.402Z,1027.58
2017-12-21T23:30:27.513Z,1027.56
2017-12-21T23:31:26.413Z,1027.53
2017-12-21T23:32:26.526Z,1027.53
2017-12-21T23:33:26.416Z,1027.51
2017-12-21T23:34:26.515Z,1027.50
2017-12-21T23:35:26.431Z,1027.44
2017-12-21T23:36:27.452Z,1027.46
2017-12-21T23:37:26.434Z,1027.50
2017-12-21T23:38:28.509Z,1027.42
2017-12-21T23:39:26.430Z,1027.40
2017-12-21T23:40:27.488Z,1027.40
2017-12-21T23:41:26.449Z,1027.42
2017-12-21T23:42:26.472Z,1027.39
2017-12-21T23:43:26.442Z,1027.38
2017-12-21T23:44:26.454Z,1027.38
2017-12-21T23:45:32.446Z,1027.36
2017-12-21T23:46:26.459Z,1027.35
2017-12-21T23:47:27.552Z,1027.33
2017-12-21T23:48:26.448Z,1027.33
2017-12-21T23:49:27.558Z,1027.32
2017-12-21T23:50:26.456Z,1027.30
2017-12-21T23:51:26.546Z,1027.25
2017-12-21T23:52:26.468Z,1027.29
2017-12-21T23:53:26.481Z,1027.24
2017-12-21T23:54:27.560Z,1027.25
2017-12-21T23:55:26.491Z,1027.23
2017-12-21T23:56:27.590Z,1027.23
2017-12-21T23:57:26.484Z,1027.22
2017-12-21T23:58:26.509Z,1027.21
2017-12-21T23:59:26.495Z,1027.22
